Sao Goncalo dos Campos, Brazil
Current Conditions -  °F | °C
As of 7:00 PM on Thursday 18 Dec 2014 (Local Time) from SBSV Reporting Station
Overcast Overcast  
Wind Chill: 75°   Ceiling: 1700
Heat Index: 75°   Visibility: 5mi
Dew Point: 70°   Wind: 7mph
Humidity: 83%   Direction: 40°NE
Pressure: 29.85"   Gusts: NA
Location:  12.43°S, 38.97°W
Report Text: SBSV 182200Z 04006KT 8000 FEW010 BKN017 FEW020TCU OVC070 24/21 Q1011
Loading
Personal Weather Stations






























Interactive Weather Map New forecast layout! Learn more

10-Day Weather Forecast

Advertisements
Track Severe Weather on mobile